Terminal Aerodrome Forecast
Issued by NWS Sterling, VA

Current Version | Previous Version | Graphics & Text | Print | Product List | Glossary On
Versions: 1 2 3 4 5 6 7 8 9 10 11 12 13 14 15 16 17 18 19 20 21 22 23 24
000
FTUS41 KLWX 290540 AAB
TAFDCA
TAF AMD
KDCA 290540Z 2906/3006 34005KT P6SM -SHRA BKN025 OVC090
     FM290700 01004KT 4SM SHRA OVC008
     FM290900 36005KT P6SM -SHRA OVC010
     FM291100 35005KT P6SM OVC010
     FM291300 34007KT P6SM BKN040
     FM300000 05005KT P6SM BKN050=

USA.gov is the U.S. government's official web portal to all federal, state and local government web resources and services.